Grover Beach, California
Current Conditions -  °F | °C
As of 2:56 PM on Saturday 25 Oct 2014 (Local Time) from KSBP Reporting Station
Broken Clouds Broken Clouds  
Wind Chill: 23°   Ceiling: 9000
Heat Index: 23°   Visibility: 10mi
Dew Point: 13°   Wind: 9mph
Humidity: 53%   Direction: 320°NW
Pressure: 30.07"   Gusts: NA
Location:  35.12°N, 120.62°W
Report Text: KSBP 252156Z 32008KT 10SM FEW037 BKN090 23/13 A3007 RMK AO2 SLP179 T02280128
Loading
Personal Weather Stations






























Interactive Weather Map
Tropical Storm Tracking
New forecast layout! Learn more

10-Day Weather Forecast

Advertisements
Track Severe Weather on mobile